This is the latest recevied weather packets stored in our database for station/object F1ZFG-13. If no packets are shown the sender has not sent any weather packets the latest 10 day(s).
| Time | Temp. | Humidity | Pressure | Rain* | Wind** | Luminosity | Snow |
|---|---|---|---|---|---|---|---|
| 1788157532 | 64° F | 94% | 765 mmHg | 0 in | - | - | - |
| 1788154479 | 64° F | 94% | 764.7 mmHg | 0 in | - | - | - |
| 1788151537 | 64° F | 93% | 764.5 mmHg | 0 in | - | - | - |
| 1788148657 | 64° F | 92% | 764.3 mmHg | 0 in | - | - | - |
| 1788145462 | 64° F | 92% | 764.3 mmHg | 0 in | - | - | - |
| 1788142097 | 65° F | 88% | 764.2 mmHg | 0 in | - | - | - |
| 1788139145 | 65° F | 91% | 763.9 mmHg | 0 in | - | - | - |
| 1788136188 | 66° F | 88% | 763.9 mmHg | 0 in | - | - | - |
| 1788133067 | 67° F | 84% | 763.6 mmHg | 0 in | - | - | - |
| 1788130082 | 69° F | 77% | 763.2 mmHg | 0 in | - | - | - |
| 1788126627 | 70° F | 72% | 762.6 mmHg | 0 in | - | - | - |
| 1788123686 | 70° F | 72% | 762.6 mmHg | 0 in | - | - | - |
| 1788120216 | 72° F | 66% | 761.8 mmHg | 0 in | - | - | - |
| 1788117288 | 75° F | 63% | 760.5 mmHg | 0.01 in | - | - | - |
| 1788114012 | 78° F | 56% | 760.2 mmHg | 0 in | - | - | - |
| 1788110657 | 81° F | 45% | 760.1 mmHg | 0 in | - | - | - |
| 1788107780 | 81° F | 43% | 760.2 mmHg | 0 in | - | - | - |
| 1788104912 | 82° F | 42% | 760.6 mmHg | 0 in | - | - | - |
| 1788101640 | 82° F | 40% | 760.9 mmHg | 0 in | - | - | - |
| 1788098501 | 82° F | 40% | 760.9 mmHg | 0 in | - | - | - |
| 1788095385 | 82° F | 41% | 761.2 mmHg | 0 in | - | - | - |
| 1788092313 | 81° F | 42% | 761.7 mmHg | 0 in | - | - | - |
| 1788089353 | 80° F | 43% | 762.1 mmHg | 0 in | - | - | - |
| 1788085851 | 78° F | 46% | 762.4 mmHg | 0 in | - | - | - |
| 1788082774 | 75° F | 51% | 762.8 mmHg | 0 in | - | - | - |
* Rain latest hour (hover to see other rain measurements)
** Current wind speed in m/s (hover to see current wind gust speed)